Home PIREPS Pireps

Flight BEL6052

  • Submitted By: Laurent Huysentruyt
  • Departure Airport: Amilcar Cabral Intl (GVAC)
  • Arrival Airport: Bruxelles National (EBBR)
  • Aircraft: A319-111 (OO-SSU)
  • Flight Time: 06.17
  • Date Submitted: 19/03/2017
  • Route: NONE
  • Status: Accepted
Flight Details
Gross Revenue:
(119 load / € 0.00 per unit
€ 0.00
Fuel Cost:
(14604 fuel used @ 0 / unit)
€ 0.00

Additional Log Information:

View Log

Aircraft Used in flight is Project Airbus A319 CFM Brussels Airlines
11:35 Brakes are On
11:46 Brakes are Released
11:48 Brakes are On
11:49 Brakes are Released
11:52 Brakes are On
11:52 Brakes are Released
11:52 You Took off @ 149 Knots and Flaps at Position 2
Departure Weather
GVAC 191100Z 04016KT 9999 SCT015 SCT100 BKN200 22/14 Q1018 NOSIGrn
11:52 Landing Gear Up @ 150 Knots and 330 Feet
11:54 Below Fl100 you need to turn on the landing lights
11:54 Below FL100 you need to turn on the landing lights
11:54 Below 10000 feet you are not allowed to go over 250 knots
12:34 Overspeed
12:34 Recovered from Overspeed
12:35 Overspeed
12:35 Recovered from Overspeed
17:29 Paused
17:56 Unpaused
18:11 Landing Gear Down @ 166 Knots and 2080 Feet
18:14 You Landed @ 133 Knots and with -150 Vertical Speed
Arrival Weather
EBBR 191650Z 25018KT 9999 SCT029 BKN037 11/06 Q1010 TEMPO 24020G30KTrn
18:19 Brakes are On
18:19 Brussels Bel-Track1.0.1.2

Route Map

Corporate About Us Our Team Vacancies Information Fleet Route Network Rules and Regulations Operations Flight Schedules Event Center Tours Partners IVAO Vatsim Acars dev FSCB

fb Users Online Belgium Glenn Sonck, Belgium Marc Claus,
3 Pilot(s) and 156 Guest(s) Online
CMS by phpVMS - Design by Crazycreatives.com - Copyright © 2018 - Brussels Airlines Virtual